TimeCST,TemperatureF,Dew PointF,Humidity,Sea Level PressureIn,VisibilityMPH,Wind Direction,Wind SpeedMPH,Gust SpeedMPH,PrecipitationIn,Events,Conditions,WindDirDegrees,DateUTC
12:53 AM,48.0,43.0,83,30.22,10.0,Calm,Calm,-,N/A,,Clear,0,2013-03-08 06:53:00
1:53 AM,48.0,44.1,86,30.21,10.0,East,3.5,-,N/A,,Clear,90,2013-03-08 07:53:00
2:53 AM,48.0,44.1,86,30.19,10.0,Calm,Calm,-,N/A,,Clear,0,2013-03-08 08:53:00
3:53 AM,50.0,46.0,86,30.19,10.0,ENE,4.6,-,N/A,,Clear,70,2013-03-08 09:53:00
4:53 AM,51.1,48.9,92,30.17,10.0,East,8.1,-,N/A,,Clear,90,2013-03-08 10:53:00
5:53 AM,51.1,50.0,96,30.19,8.0,ENE,5.8,-,N/A,,Clear,70,2013-03-08 11:53:00
6:53 AM,51.1,50.0,96,30.20,5.0,ENE,6.9,-,N/A,,Clear,70,2013-03-08 12:53:00
7:53 AM,55.9,54.0,93,30.22,7.0,East,9.2,-,N/A,,Clear,100,2013-03-08 13:53:00
8:53 AM,59.0,55.0,87,30.24,10.0,East,11.5,-,N/A,,Clear,100,2013-03-08 14:53:00
9:53 AM,64.0,55.0,73,30.26,10.0,East,15.0,-,N/A,,Clear,90,2013-03-08 15:53:00
10:53 AM,66.0,55.9,70,30.25,10.0,ESE,13.8,-,N/A,,Clear,110,2013-03-08 16:53:00
11:53 AM,69.1,55.0,61,30.24,10.0,ESE,15.0,19.6,N/A,,Mostly Cloudy,110,2013-03-08 17:53:00
12:53 PM,70.0,54.0,57,30.22,10.0,ESE,11.5,-,N/A,,Overcast,110,2013-03-08 18:53:00
1:53 PM,70.0,54.0,57,30.19,10.0,ESE,12.7,-,N/A,,Clear,110,2013-03-08 19:53:00
2:53 PM,66.0,52.0,60,30.17,10.0,SE,16.1,-,N/A,,Clear,130,2013-03-08 20:53:00
3:53 PM,66.9,53.1,61,30.14,10.0,ESE,15.0,-,N/A,,Clear,120,2013-03-08 21:53:00
4:53 PM,64.9,53.1,65,30.13,10.0,ESE,13.8,-,N/A,,Clear,120,2013-03-08 22:53:00
5:53 PM,63.0,53.1,70,30.17,10.0,SE,9.2,-,N/A,,Clear,130,2013-03-08 23:53:00
6:53 PM,60.1,52.0,75,30.18,10.0,SE,8.1,-,N/A,,Clear,130,2013-03-09 00:53:00
7:53 PM,57.9,53.1,84,30.20,10.0,SE,6.9,-,N/A,,Clear,140,2013-03-09 01:53:00
8:53 PM,59.0,54.0,83,30.15,10.0,ESE,13.8,-,N/A,,Clear,120,2013-03-09 02:53:00
9:53 PM,59.0,53.1,81,30.12,10.0,SE,13.8,-,N/A,,Clear,130,2013-03-09 03:53:00
10:53 PM,59.0,52.0,78,30.11,10.0,SE,13.8,-,N/A,,Clear,130,2013-03-09 04:53:00
11:53 PM,59.0,54.0,83,30.09,10.0,SE,12.7,-,N/A,,Clear,130,2013-03-09 05:53:00